Time;durP1;ratioP1;P1;durP2;ratioP2;P2;SDS_P1;SDS_P2;PMS_P1;PMS_P2;Temp;Humidity;BMP_temperature;BMP_pressure;BME280_temperature;BME280_humidity;BME280_pressure;Samples;Min_cycle;Max_cycle;Signal;HPM_P1;HPM_P2
2022/06/23 00:00:16;;;;;;;6.57;3.28;;;17.30;96.30;;;;;;4974847;28;20568;-90
2022/06/23 00:02:42;;;;;;;7.95;3.50;;;17.30;96.30;;;;;;4976033;28;20165;-90
2022/06/23 00:05:16;;;;;;;7.32;3.47;;;17.30;96.70;;;;;;4974797;28;20491;-89
2022/06/23 00:07:46;;;;;;;5.25;3.20;;;17.30;97.00;;;;;;4975036;28;20192;-90
2022/06/23 00:10:26;;;;;;;6.80;3.55;;;17.30;97.00;;;;;;4974736;28;20690;-90
2022/06/23 00:12:53;;;;;;;4.25;2.78;;;17.30;97.00;;;;;;4975589;28;20655;-89
2022/06/23 00:15:36;;;;;;;5.32;3.28;;;17.30;97.10;;;;;;4975909;28;20215;-91
2022/06/23 00:18:06;;;;;;;8.55;3.53;;;17.20;96.80;;;;;;4974922;28;20272;-88
2022/06/23 00:20:47;;;;;;;4.38;2.97;;;17.10;97.30;;;;;;4974356;28;20193;-89
2022/06/23 00:23:19;;;;;;;4.72;3.55;;;17.10;97.10;;;;;;4977430;28;20172;-90
2022/06/23 00:26:10;;;;;;;5.65;3.20;;;17.10;97.50;;;;;;4977710;28;20239;-90
2022/06/23 00:28:59;;;;;;;7.45;3.28;;;17.00;97.30;;;;;;4978493;28;20187;-91
2022/06/23 00:31:35;;;;;;;4.60;3.13;;;17.00;97.80;;;;;;4975226;28;20184;-90
2022/06/23 00:34:16;;;;;;;3.75;3.28;;;16.90;97.40;;;;;;4978763;28;20286;-90
2022/06/23 00:37:09;;;;;;;6.40;3.20;;;16.90;97.50;;;;;;4977802;28;20172;-90
2022/06/23 00:39:40;;;;;;;9.45;3.40;;;16.90;97.50;;;;;;4994162;28;20219;-90
2022/06/23 00:42:16;;;;;;;6.20;3.70;;;16.90;97.80;;;;;;4962196;28;20227;-90
2022/06/23 00:44:55;;;;;;;5.45;3.40;;;16.90;97.80;;;;;;4974540;28;20202;-90
2022/06/23 00:47:43;;;;;;;5.65;3.25;;;16.80;97.70;;;;;;4974567;28;20173;-91
2022/06/23 00:50:25;;;;;;;5.80;3.33;;;16.80;98.10;;;;;;4958259;29;20166;-90
2022/06/23 00:53:13;;;;;;;5.95;3.38;;;16.80;97.90;;;;;;4974872;28;20185;-89
2022/06/23 00:55:44;;;;;;;7.20;3.47;;;16.80;98.20;;;;;;4974352;28;20678;-89
2022/06/23 00:58:21;;;;;;;5.10;3.10;;;16.70;98.10;;;;;;4959213;29;20177;-90
2022/06/23 01:00:52;;;;;;;5.13;3.47;;;16.70;98.20;;;;;;4958133;29;20953;-90
2022/06/23 01:03:24;;;;;;;6.50;3.00;;;16.60;98.20;;;;;;4959383;29;20168;-89
2022/06/23 01:06:00;;;;;;;5.63;3.10;;;16.50;98.70;;;;;;4958125;29;20177;-89
2022/06/23 01:08:39;;;;;;;4.15;3.17;;;16.50;98.70;;;;;;4958076;29;20213;-90
2022/06/23 01:11:29;;;;;;;8.80;3.60;;;16.50;98.80;;;;;;4958042;29;20189;-89
2022/06/23 01:14:10;;;;;;;5.32;3.60;;;16.50;99.00;;;;;;4973963;28;20225;-91
2022/06/23 01:16:47;;;;;;;6.00;3.63;;;16.50;99.20;;;;;;4973971;28;20267;-89
2022/06/23 01:19:28;;;;;;;5.20;3.60;;;16.40;99.40;;;;;;4959100;28;20166;-89
2022/06/23 01:21:58;;;;;;;6.43;3.53;;;16.40;99.90;;;;;;4959080;28;20176;-90
2022/06/23 01:24:50;;;;;;;4.55;2.90;;;16.40;99.90;;;;;;4973895;28;20229;-90
2022/06/23 01:27:33;;;;;;;4.38;3.47;;;16.30;99.90;;;;;;4973653;28;20185;-90
2022/06/23 01:30:05;;;;;;;5.90;3.70;;;16.20;99.90;;;;;;4974123;28;20184;-90
2022/06/23 01:32:38;;;;;;;6.82;3.47;;;16.10;99.90;;;;;;4973448;28;20220;-90
2022/06/23 01:35:16;;;;;;;7.05;3.67;;;16.10;99.90;;;;;;4973147;28;20211;-90
2022/06/23 01:37:55;;;;;;;5.30;3.40;;;16.00;99.90;;;;;;4973795;28;20172;-90
2022/06/23 01:40:34;;;;;;;7.22;3.70;;;16.00;99.90;;;;;;4975189;28;20181;-89
2022/06/23 01:43:12;;;;;;;5.35;3.35;;;15.80;99.90;;;;;;4976515;28;20219;-88
2022/06/23 01:45:54;;;;;;;7.88;3.65;;;15.80;99.90;;;;;;4976659;28;20284;-89
2022/06/23 01:48:51;;;;;;;4.70;3.30;;;15.90;99.90;;;;;;4992691;28;20180;-88
2022/06/23 01:51:32;;;;;;;7.53;3.78;;;15.90;99.90;;;;;;4976026;28;20169;-88
2022/06/23 01:54:19;;;;;;;4.55;3.33;;;15.90;99.90;;;;;;4976128;28;20642;-89
2022/06/23 01:57:00;;;;;;;5.95;3.40;;;15.90;99.90;;;;;;4992238;28;20192;-90
2022/06/23 02:00:03;;;;;;;5.47;3.65;;;16.00;99.90;;;;;;4976286;28;20620;-88
2022/06/23 02:02:55;;;;;;;6.38;3.92;;;16.10;99.90;;;;;;4976107;28;20180;-88
2022/06/23 02:05:36;;;;;;;5.95;3.53;;;15.90;99.90;;;;;;4992670;28;20192;-89
2022/06/23 02:08:20;;;;;;;9.05;3.88;;;15.80;99.90;;;;;;4975981;28;20180;-88
2022/06/23 02:11:10;;;;;;;4.90;3.75;;;15.70;99.90;;;;;;4977277;28;20169;-89
2022/06/23 02:14:02;;;;;;;7.57;3.92;;;15.60;99.90;;;;;;4991961;28;20339;-89
2022/06/23 02:16:38;;;;;;;4.40;3.90;;;15.60;99.90;;;;;;4975848;28;20184;-89
2022/06/23 02:19:21;;;;;;;5.55;3.58;;;15.50;99.90;;;;;;4976224;28;20251;-89
2022/06/23 02:22:15;;;;;;;5.70;3.95;;;15.40;99.90;;;;;;4976136;28;20231;-90
2022/06/23 02:25:03;;;;;;;8.45;3.88;;;15.30;99.90;;;;;;4992359;28;20608;-89
2022/06/23 02:27:33;;;;;;;4.57;3.45;;;15.30;99.90;;;;;;4991988;28;20232;-88
2022/06/23 02:30:19;;;;;;;7.18;3.85;;;15.20;99.90;;;;;;4976973;28;20638;-90
2022/06/23 02:33:26;;;;;;;4.15;3.08;;;15.20;99.90;;;;;;4976800;28;20266;-90
2022/06/23 02:36:13;;;;;;;6.45;3.90;;;15.20;99.90;;;;;;4964384;28;20224;-90
2022/06/23 02:38:55;;;;;;;7.05;3.90;;;15.20;99.90;;;;;;4991955;28;20220;-88
2022/06/23 02:41:34;;;;;;;5.63;3.35;;;15.10;99.90;;;;;;4975729;28;20219;-90
2022/06/23 02:44:08;;;;;;;6.93;3.80;;;15.20;99.90;;;;;;4975215;28;20275;-89
2022/06/23 02:47:10;;;;;;;6.15;4.30;;;15.20;99.90;;;;;;4975479;28;20175;-89
2022/06/23 02:50:03;;;;;;;8.73;3.67;;;15.20;99.90;;;;;;4975621;28;20184;-89
2022/06/23 02:52:40;;;;;;;4.93;3.40;;;15.20;99.90;;;;;;4991618;28;20182;-88
2022/06/23 02:55:25;;;;;;;6.07;3.53;;;15.10;99.90;;;;;;4975269;28;20267;-89
2022/06/23 02:58:04;;;;;;;5.93;3.28;;;15.10;99.90;;;;;;4991487;28;20199;-89
2022/06/23 03:00:44;;;;;;;3.83;3.20;;;15.00;99.90;;;;;;4991796;28;20180;-89
2022/06/23 03:03:49;;;;;;;4.25;3.78;;;14.90;99.90;;;;;;4979738;28;20211;-90
2022/06/23 03:06:30;;;;;;;7.47;3.58;;;15.00;99.90;;;;;;4952017;29;20275;-89
2022/06/23 03:09:21;;;;;;;5.75;3.67;;;14.90;99.90;;;;;;4972019;28;20191;-89
2022/06/23 03:12:00;;;;;;;4.10;3.70;;;14.80;99.90;;;;;;4968753;28;20212;-89
2022/06/23 03:14:44;;;;;;;4.95;3.53;;;14.80;99.90;;;;;;4975030;28;20359;-89
2022/06/23 03:17:20;;;;;;;4.18;3.60;;;14.70;99.90;;;;;;4975150;28;20183;-90
2022/06/23 03:20:08;;;;;;;6.38;3.80;;;14.70;99.90;;;;;;4976523;28;20164;-89
2022/06/23 03:23:00;;;;;;;6.43;3.85;;;14.80;99.90;;;;;;4975274;28;20176;-89
2022/06/23 03:25:33;;;;;;;4.50;3.75;;;14.70;99.90;;;;;;4975097;28;20173;-89
2022/06/23 03:28:04;;;;;;;6.00;4.20;;;14.60;99.90;;;;;;4975214;28;20555;-88
2022/06/23 03:30:44;;;;;;;5.47;3.78;;;14.60;99.90;;;;;;4976450;28;20245;-90
2022/06/23 03:33:32;;;;;;;6.32;4.03;;;14.60;99.90;;;;;;4975142;28;20183;-89
2022/06/23 03:36:25;;;;;;;5.57;3.45;;;14.50;99.90;;;;;;4975956;28;20206;-89
2022/06/23 03:41:57;;;;;;;4.63;3.45;;;14.80;99.90;;;;;;4976493;28;20280;-89
2022/06/23 03:44:30;;;;;;;5.30;3.60;;;14.80;99.90;;;;;;4974647;28;20263;-91
2022/06/23 03:47:12;;;;;;;6.38;3.80;;;14.70;99.90;;;;;;4974996;28;20204;-90
2022/06/23 03:50:17;;;;;;;7.28;4.53;;;14.50;99.90;;;;;;4975026;28;20176;-92
2022/06/23 03:52:48;;;;;;;6.15;3.92;;;14.50;99.90;;;;;;4975929;28;20168;-91
2022/06/23 03:55:41;;;;;;;6.57;4.28;;;14.60;99.90;;;;;;4974671;28;20266;-92
2022/06/23 03:58:37;;;;;;;6.07;4.20;;;14.60;99.90;;;;;;4979218;28;20204;-90
2022/06/23 04:01:12;;;;;;;10.15;3.90;;;14.50;99.90;;;;;;4976873;28;20204;-90
2022/06/23 04:03:43;;;;;;;7.57;4.07;;;14.50;99.90;;;;;;4979658;28;20202;-89
2022/06/23 04:06:14;;;;;;;6.13;3.70;;;14.50;99.90;;;;;;4994833;28;20525;-90
2022/06/23 04:09:15;;;;;;;5.05;3.53;;;14.50;99.90;;;;;;4994932;28;20169;-90
2022/06/23 04:12:07;;;;;;;5.53;4.30;;;14.50;99.90;;;;;;4970183;28;20191;-89
2022/06/23 04:14:45;;;;;;;6.90;4.05;;;14.50;99.90;;;;;;4978415;28;20251;-92
2022/06/23 04:17:26;;;;;;;4.43;3.65;;;14.50;99.90;;;;;;4979648;28;20169;-91
2022/06/23 04:20:01;;;;;;;8.07;3.75;;;14.60;99.90;;;;;;4978487;28;20191;-90
2022/06/23 04:22:37;;;;;;;6.88;3.67;;;14.60;99.90;;;;;;4979655;28;20215;-93
2022/06/23 04:25:06;;;;;;;5.63;4.07;;;14.60;99.90;;;;;;4978461;28;20191;-91
2022/06/23 04:27:51;;;;;;;7.13;4.13;;;14.70;99.90;;;;;;4978003;28;20180;-90
2022/06/23 04:30:32;;;;;;;7.70;4.00;;;14.80;99.90;;;;;;4978281;28;20183;-91
2022/06/23 04:33:01;;;;;;;6.93;4.00;;;14.80;99.90;;;;;;4978399;28;20180;-89
2022/06/23 04:35:32;;;;;;;5.07;3.60;;;14.90;99.90;;;;;;4977304;28;20274;-90
2022/06/23 04:38:11;;;;;;;4.45;3.70;;;15.00;99.90;;;;;;4977650;28;20191;-90
2022/06/23 04:40:45;;;;;;;5.63;3.78;;;15.10;99.90;;;;;;4990280;28;20295;-89
2022/06/23 04:43:31;;;;;;;5.82;3.63;;;15.30;99.90;;;;;;4974630;28;20245;-90
2022/06/23 04:46:04;;;;;;;6.63;3.63;;;15.40;99.90;;;;;;4958192;28;20185;-90
2022/06/23 04:48:41;;;;;;;9.75;4.22;;;15.50;99.90;;;;;;4967746;28;20180;-91
2022/06/23 04:51:20;;;;;;;5.20;3.50;;;15.70;99.90;;;;;;4997276;28;20171;-90
2022/06/23 04:53:57;;;;;;;5.47;3.75;;;15.90;99.90;;;;;;4997264;28;20186;-91
2022/06/23 04:56:43;;;;;;;4.30;3.50;;;16.00;99.90;;;;;;4997455;28;20182;-92
2022/06/23 04:59:30;;;;;;;5.25;3.90;;;16.10;99.90;;;;;;4997054;28;20175;-91
2022/06/23 05:02:01;;;;;;;6.47;4.00;;;16.30;99.90;;;;;;5013489;28;20178;-88
2022/06/23 05:04:32;;;;;;;4.65;3.58;;;16.40;99.90;;;;;;4997185;28;20175;-91
2022/06/23 05:07:40;;;;;;;6.72;3.80;;;16.50;99.90;;;;;;4998345;28;20164;-91
2022/06/23 05:10:11;;;;;;;5.60;3.80;;;16.50;99.90;;;;;;4989319;28;20883;-92
2022/06/23 05:12:42;;;;;;;9.57;4.10;;;16.60;99.90;;;;;;4973798;28;20233;-92
2022/06/23 05:15:21;;;;;;;8.43;4.10;;;16.70;99.90;;;;;;4958081;29;20652;-91
2022/06/23 05:17:55;;;;;;;6.22;3.58;;;16.80;99.90;;;;;;4958074;29;20173;-90
2022/06/23 05:20:48;;;;;;;6.68;3.25;;;16.90;99.90;;;;;;4975967;28;20179;-93
2022/06/23 05:23:19;;;;;;;7.68;4.20;;;16.90;99.90;;;;;;4969999;28;20184;-88
2022/06/23 05:25:47;;;;;;;7.95;3.67;;;17.00;99.90;;;;;;4987713;28;20243;-90
2022/06/23 05:28:29;;;;;;;8.02;4.05;;;17.10;99.90;;;;;;4976997;28;20181;-93
2022/06/23 05:30:58;;;;;;;9.52;3.90;;;17.20;99.90;;;;;;4976084;28;20188;-90
2022/06/23 05:33:30;;;;;;;7.25;3.78;;;17.30;99.90;;;;;;4974327;28;20192;-94
2022/06/23 05:36:27;;;;;;;6.63;3.80;;;17.40;99.90;;;;;;4985699;28;20212;-87
2022/06/23 05:39:01;;;;;;;4.65;3.17;;;17.40;99.90;;;;;;4996360;28;20523;-94
2022/06/23 05:41:35;;;;;;;7.68;3.63;;;17.50;99.90;;;;;;4985746;28;20195;-88
2022/06/23 05:44:06;;;;;;;6.78;3.75;;;17.60;99.90;;;;;;4975940;28;20192;-91
2022/06/23 05:46:36;;;;;;;7.15;3.90;;;17.70;99.90;;;;;;4976629;28;20286;-88
2022/06/23 05:49:13;;;;;;;7.43;3.97;;;17.70;99.90;;;;;;4976692;28;20219;-93
2022/06/23 05:51:50;;;;;;;5.47;3.40;;;17.70;99.90;;;;;;4977089;28;20211;-95
2022/06/23 05:54:30;;;;;;;6.60;3.88;;;17.80;99.90;;;;;;4992252;28;20204;-91
2022/06/23 05:57:07;;;;;;;7.07;3.80;;;17.90;99.90;;;;;;4996543;28;20607;-90
2022/06/23 05:59:53;;;;;;;6.05;3.63;;;18.00;99.90;;;;;;5012254;28;20191;-90
2022/06/23 06:02:43;;;;;;;6.50;3.20;;;18.00;99.90;;;;;;5012696;28;20260;-94
2022/06/23 06:05:34;;;;;;;6.78;3.42;;;18.10;99.90;;;;;;5012441;28;20175;-87
2022/06/23 06:08:06;;;;;;;5.93;3.38;;;18.20;99.90;;;;;;4949895;29;20204;-92
2022/06/23 06:10:35;;;;;;;5.07;3.60;;;18.20;99.90;;;;;;4960334;28;20197;-91
2022/06/23 06:13:03;;;;;;;8.88;3.83;;;18.20;99.90;;;;;;4975807;28;20228;-88
2022/06/23 06:15:38;;;;;;;6.25;3.33;;;18.30;99.90;;;;;;4976263;28;20240;-92
2022/06/23 06:18:38;;;;;;;8.18;3.95;;;18.30;99.90;;;;;;4976122;28;20171;-88
2022/06/23 06:21:08;;;;;;;4.10;3.30;;;18.40;99.90;;;;;;4976581;28;20196;-91
2022/06/23 06:23:48;;;;;;;5.05;3.78;;;18.50;99.90;;;;;;4977324;28;20169;-93
2022/06/23 06:26:17;;;;;;;7.13;3.50;;;18.50;99.90;;;;;;4975832;28;20615;-88
2022/06/23 06:28:42;;;;;;;7.63;3.40;;;18.70;99.90;;;;;;4974459;28;20195;-89
2022/06/23 06:31:29;;;;;;;6.85;3.47;;;18.80;99.90;;;;;;4975665;28;20180;-87
2022/06/23 06:34:06;;;;;;;10.93;3.97;;;18.80;99.90;;;;;;4975321;28;20176;-88
2022/06/23 06:36:39;;;;;;;5.63;3.85;;;18.90;99.90;;;;;;4973826;28;20192;-86
2022/06/23 06:39:23;;;;;;;7.85;3.90;;;19.00;99.90;;;;;;4975026;28;20173;-89
2022/06/23 06:42:01;;;;;;;4.97;3.35;;;19.10;99.90;;;;;;4975130;28;20627;-88
2022/06/23 06:44:28;;;;;;;3.92;3.30;;;19.20;99.90;;;;;;4974742;28;20184;-87
2022/06/23 06:46:54;;;;;;;8.52;3.40;;;19.30;99.90;;;;;;4974338;28;20187;-88
2022/06/23 06:49:22;;;;;;;7.45;3.50;;;19.40;99.90;;;;;;4976310;28;20169;-91
2022/06/23 06:51:51;;;;;;;7.68;3.30;;;19.60;99.90;;;;;;4975180;28;20176;-89
2022/06/23 06:54:22;;;;;;;7.35;3.55;;;19.70;99.90;;;;;;4974630;28;20235;-88
2022/06/23 06:57:04;;;;;;;6.15;3.47;;;19.90;99.90;;;;;;4975412;28;20180;-91
2022/06/23 06:59:56;;;;;;;5.50;3.30;;;20.00;99.90;;;;;;4974863;28;20267;-89
2022/06/23 07:02:30;;;;;;;7.10;3.80;;;20.20;99.90;;;;;;4974807;28;20169;-92
2022/06/23 07:05:06;;;;;;;5.72;3.45;;;20.40;99.90;;;;;;4975750;28;20239;-87
2022/06/23 07:07:40;;;;;;;4.90;3.40;;;20.40;99.90;;;;;;4974017;28;20180;-89
2022/06/23 07:10:13;;;;;;;6.22;3.70;;;20.50;99.90;;;;;;4977742;28;20180;-89
2022/06/23 07:12:45;;;;;;;9.85;4.10;;;20.60;99.90;;;;;;4955809;28;20229;-88
2022/06/23 07:15:30;;;;;;;7.15;3.13;;;20.80;99.90;;;;;;4970974;28;20208;-86
2022/06/23 07:18:02;;;;;;;4.63;3.20;;;21.00;99.90;;;;;;4956785;28;20177;-90
2022/06/23 07:20:38;;;;;;;8.48;3.35;;;21.10;99.80;;;;;;4971449;28;20205;-87
2022/06/23 07:23:20;;;;;;;8.98;3.38;;;21.30;99.60;;;;;;4973702;28;20254;-88
2022/06/23 07:25:50;;;;;;;6.95;3.20;;;21.50;98.90;;;;;;4974082;28;20189;-91
2022/06/23 07:28:52;;;;;;;7.00;3.20;;;21.50;98.60;;;;;;4974224;28;20271;-91
2022/06/23 07:31:25;;;;;;;4.93;3.30;;;21.70;98.30;;;;;;4972477;28;20215;-90
2022/06/23 07:33:56;;;;;;;9.73;3.33;;;21.80;98.00;;;;;;4975624;28;20172;-90
2022/06/23 07:36:55;;;;;;;4.55;3.10;;;22.00;97.90;;;;;;4978089;28;20192;-86
2022/06/23 07:39:24;;;;;;;6.30;3.10;;;22.20;98.60;;;;;;4974872;28;20256;-90
2022/06/23 07:41:56;;;;;;;7.03;3.40;;;22.30;97.70;;;;;;4974803;28;20215;-88
2022/06/23 07:44:30;;;;;;;6.80;3.35;;;22.40;97.10;;;;;;4974049;28;20268;-90
2022/06/23 07:47:01;;;;;;;5.25;2.70;;;22.50;96.60;;;;;;4990282;28;20190;-90
2022/06/23 07:49:27;;;;;;;3.47;2.80;;;22.60;97.40;;;;;;4975315;28;20231;-88
2022/06/23 07:51:55;;;;;;;7.10;3.88;;;22.70;97.30;;;;;;4974368;28;20204;-87
2022/06/23 07:54:21;;;;;;;6.15;2.85;;;22.80;96.30;;;;;;4975284;28;20540;-89
2022/06/23 07:56:49;;;;;;;5.47;3.03;;;22.90;96.20;;;;;;4975003;28;20172;-90
2022/06/23 07:59:18;;;;;;;5.97;2.90;;;23.00;96.00;;;;;;4975422;28;20172;-92
2022/06/23 08:01:52;;;;;;;8.15;3.05;;;23.20;97.10;;;;;;4974683;28;20744;-90
2022/06/23 08:04:23;;;;;;;6.22;2.72;;;23.30;95.30;;;;;;4974817;28;20259;-91
2022/06/23 08:06:50;;;;;;;4.95;2.80;;;23.40;95.40;;;;;;4974466;28;20184;-89
2022/06/23 08:09:30;;;;;;;8.45;2.70;;;23.50;95.00;;;;;;4974314;28;20188;-90
2022/06/23 08:18:26;;;;;;;6.88;3.08;;;24.00;94.50;;;;;;4975449;28;20285;-91
2022/06/23 08:21:10;;;;;;;5.38;2.70;;;24.20;94.60;;;;;;4973047;28;20189;-91
2022/06/23 08:23:48;;;;;;;4.75;2.42;;;24.20;93.90;;;;;;4990551;28;20268;-89
2022/06/23 08:26:16;;;;;;;12.88;2.80;;;24.30;94.00;;;;;;4974122;28;20208;-90
2022/06/23 08:28:50;;;;;;;4.60;2.67;;;24.50;94.10;;;;;;4974367;28;20183;-89
2022/06/23 08:31:17;;;;;;;6.45;2.60;;;24.60;94.10;;;;;;4975387;28;20685;-90
2022/06/23 08:33:43;;;;;;;4.40;2.65;;;24.70;94.30;;;;;;4974205;28;20187;-92
2022/06/23 08:36:12;;;;;;;4.75;2.72;;;24.80;93.60;;;;;;4975530;28;20220;-90
2022/06/23 08:38:45;;;;;;;5.25;2.60;;;24.90;93.10;;;;;;4974281;28;20188;-90
2022/06/23 08:41:16;;;;;;;4.97;2.60;;;25.00;92.50;;;;;;4977587;28;20665;-89
2022/06/23 08:43:55;;;;;;;4.78;2.75;;;25.10;92.50;;;;;;4995916;28;20171;-91
2022/06/23 08:46:39;;;;;;;4.35;2.38;;;25.30;91.80;;;;;;5013483;28;20515;-90
2022/06/23 08:49:14;;;;;;;5.07;2.50;;;25.40;91.30;;;;;;4996693;28;20196;-91
2022/06/23 08:52:04;;;;;;;4.05;2.15;;;25.40;91.90;;;;;;4996432;28;20171;-89
2022/06/23 08:54:33;;;;;;;4.45;2.30;;;25.40;91.70;;;;;;4997162;28;20242;-90
2022/06/23 08:57:14;;;;;;;6.13;2.70;;;25.50;91.40;;;;;;4997118;28;20271;-95
2022/06/23 09:00:05;;;;;;;3.72;2.08;;;25.60;92.20;;;;;;5001452;28;20168;-93
2022/06/23 09:02:48;;;;;;;8.80;2.20;;;25.70;90.80;;;;;;4984392;28;20650;-94
2022/06/23 09:05:31;;;;;;;4.78;2.10;;;25.90;90.70;;;;;;4984586;28;20192;-92
2022/06/23 09:08:41;;;;;;;4.47;2.38;;;26.10;91.10;;;;;;4997303;28;20181;-96
2022/06/23 09:11:21;;;;;;;5.30;2.30;;;26.20;91.20;;;;;;4984147;28;20212;-94
2022/06/23 09:14:31;;;;;;;5.72;2.45;;;26.30;90.70;;;;;;4984547;28;20239;-93
2022/06/23 09:17:26;;;;;;;4.15;2.13;;;26.40;90.60;;;;;;4760238;23;8636724;-94
2022/06/23 09:20:18;;;;;;;3.83;2.40;;;26.60;91.00;;;;;;5002694;28;20176;-96
2022/06/23 09:23:02;;;;;;;3.95;1.95;;;26.60;88.00;;;;;;5004325;28;20169;-96
2022/06/23 09:26:05;;;;;;;4.03;1.92;;;26.70;88.70;;;;;;5004548;28;20187;-95
2022/06/23 09:28:57;;;;;;;6.07;2.10;;;26.70;87.70;;;;;;5003457;28;20179;-94
2022/06/23 09:31:58;;;;;;;5.75;2.25;;;26.90;88.30;;;;;;5003017;28;20180;-95
2022/06/23 09:34:52;;;;;;;3.00;2.22;;;27.10;89.20;;;;;;5004304;28;20206;-95
2022/06/23 09:37:27;;;;;;;5.07;2.05;;;27.30;85.10;;;;;;5003012;28;20172;-94
2022/06/23 09:40:26;;;;;;;2.67;1.60;;;27.30;86.30;;;;;;5005448;28;20163;-96
2022/06/23 09:43:09;;;;;;;3.58;1.90;;;27.40;84.90;;;;;;4977501;28;20215;-93
2022/06/23 09:46:13;;;;;;;6.63;2.17;;;27.60;85.10;;;;;;5004171;28;20200;-95
2022/06/23 09:49:29;;;;;;;7.50;2.78;;;27.70;85.30;;;;;;5007276;28;20184;-96
2022/06/23 09:52:17;;;;;;;7.35;2.10;;;27.80;84.70;;;;;;4996326;28;20915;-93
2022/06/23 09:54:55;;;;;;;3.45;1.70;;;27.80;83.00;;;;;;5004995;28;20675;-93
2022/06/23 09:57:32;;;;;;;7.82;2.10;;;28.00;83.40;;;;;;5006224;28;20195;-93
2022/06/23 10:00:08;;;;;;;2.88;1.75;;;28.10;82.20;;;;;;5010597;28;20167;-96
2022/06/23 10:02:57;;;;;;;5.10;1.67;;;28.30;83.00;;;;;;5004052;28;20179;-96
2022/06/23 10:06:01;;;;;;;3.65;2.00;;;28.30;81.50;;;;;;5014901;23;20636;-94
2022/06/23 10:11:06;;;;;;;3.70;1.65;;;28.40;80.60;;;;;;5012693;28;20238;-93
2022/06/23 10:14:04;;;;;;;4.25;1.90;;;28.50;78.90;;;;;;5013618;28;20171;-94
2022/06/23 10:17:27;;;;;;;4.22;1.67;;;28.60;80.10;;;;;;5013295;28;20634;-91
2022/06/23 10:19:56;;;;;;;5.85;1.63;;;28.70;77.50;;;;;;4957908;28;20263;-93
2022/06/23 10:22:42;;;;;;;4.72;1.75;;;28.70;78.90;;;;;;4957957;28;20176;-93
2022/06/23 10:25:23;;;;;;;2.30;1.17;;;28.70;77.80;;;;;;4999564;28;20330;-92
2022/06/23 10:28:26;;;;;;;2.75;1.85;;;28.90;76.40;;;;;;5014353;28;20182;-93
2022/06/23 10:31:01;;;;;;;1.92;1.02;;;29.00;77.10;;;;;;5013395;28;20232;-93
2022/06/23 10:33:39;;;;;;;1.35;1.15;;;29.10;75.10;;;;;;5013424;28;20175;-93
2022/06/23 10:36:31;;;;;;;2.38;1.23;;;29.10;76.20;;;;;;5014561;28;20207;-93
2022/06/23 10:39:24;;;;;;;4.20;1.20;;;29.20;73.30;;;;;;5013472;28;20168;-91
2022/06/23 10:42:18;;;;;;;2.33;1.38;;;29.30;74.40;;;;;;5013679;28;20634;-94
2022/06/23 10:45:21;;;;;;;3.95;1.52;;;29.30;73.20;;;;;;5013574;28;20174;-93
2022/06/23 10:48:25;;;;;;;1.60;1.20;;;29.50;76.20;;;;;;4983715;28;20182;-91
2022/06/23 10:51:18;;;;;;;3.08;1.38;;;29.70;75.40;;;;;;5013480;28;20174;-91
2022/06/23 10:54:06;;;;;;;2.53;1.50;;;29.60;76.10;;;;;;5013549;28;20171;-92
2022/06/23 10:57:23;;;;;;;1.70;1.25;;;29.70;75.20;;;;;;5013275;28;20214;-93
2022/06/23 11:00:09;;;;;;;2.33;1.55;;;29.70;72.80;;;;;;4927138;28;20184;-93
2022/06/23 11:02:48;;;;;;;4.47;1.50;;;29.60;72.40;;;;;;5011182;28;20270;-93
2022/06/23 11:05:26;;;;;;;4.30;1.63;;;29.60;73.90;;;;;;5014006;28;20194;-94
2022/06/23 11:08:11;;;;;;;3.13;1.40;;;29.80;75.00;;;;;;5013762;28;20256;-93
2022/06/23 11:10:45;;;;;;;2.65;1.35;;;29.70;73.50;;;;;;5014419;28;20377;-94
2022/06/23 11:13:14;;;;;;;2.08;1.50;;;29.70;72.40;;;;;;5015788;28;20216;-94
2022/06/23 11:16:14;;;;;;;2.40;1.48;;;29.80;72.70;;;;;;5014256;28;20726;-94
2022/06/23 11:18:58;;;;;;;1.70;1.10;;;29.90;71.80;;;;;;5013789;28;20179;-93
2022/06/23 11:21:49;;;;;;;1.70;1.20;;;30.00;72.00;;;;;;5015014;28;20193;-92
2022/06/23 11:24:46;;;;;;;3.13;1.20;;;30.00;73.70;;;;;;5012964;28;20174;-94
2022/06/23 11:27:32;;;;;;;2.58;1.20;;;30.10;72.50;;;;;;5012947;28;20198;-93
2022/06/23 11:30:22;;;;;;;2.45;1.10;;;30.20;68.70;;;;;;5013923;28;20171;-92
2022/06/23 11:33:11;;;;;;;1.83;1.25;;;30.20;70.00;;;;;;5015489;28;20206;-93
2022/06/23 11:36:16;;;;;;;3.17;1.17;;;30.30;67.60;;;;;;5014262;28;20214;-94
2022/06/23 11:39:10;;;;;;;1.98;1.20;;;30.40;69.00;;;;;;5015402;28;20646;-93
2022/06/23 11:42:20;;;;;;;1.92;1.27;;;30.50;67.30;;;;;;5014875;28;20198;-94
2022/06/23 11:44:55;;;;;;;2.13;1.20;;;30.60;66.90;;;;;;4997928;28;20713;-92
2022/06/23 11:47:52;;;;;;;3.58;1.17;;;30.70;65.70;;;;;;5014576;28;20677;-93
2022/06/23 11:50:45;;;;;;;2.08;1.02;;;30.60;65.50;;;;;;4995764;28;20186;-92
2022/06/23 11:53:41;;;;;;;2.50;1.27;;;30.70;69.00;;;;;;5012402;28;20182;-92
2022/06/23 11:56:15;;;;;;;2.45;1.33;;;30.70;69.60;;;;;;5012380;28;20207;-93
2022/06/23 11:59:07;;;;;;;4.00;1.17;;;30.80;68.20;;;;;;5012296;28;20181;-91
2022/06/23 12:01:34;;;;;;;5.63;1.80;;;30.80;68.10;;;;;;5011938;28;20186;-91
2022/06/23 12:04:21;;;;;;;2.38;1.45;;;30.80;68.80;;;;;;5012686;28;20167;-93
2022/06/23 12:07:16;;;;;;;3.30;1.42;;;30.90;66.60;;;;;;5012416;28;20194;-93
2022/06/23 12:09:44;;;;;;;2.75;1.20;;;30.90;64.80;;;;;;5012215;28;20218;-92
2022/06/23 12:12:10;;;;;;;1.80;1.25;;;30.90;68.10;;;;;;5011765;28;20236;-92
2022/06/23 12:14:37;;;;;;;1.80;1.30;;;30.90;66.30;;;;;;5011717;28;20194;-91
2022/06/23 12:17:25;;;;;;;2.50;1.30;;;31.10;67.80;;;;;;5012586;28;20201;-93
2022/06/23 12:20:23;;;;;;;4.32;1.60;;;31.20;67.50;;;;;;5016080;28;20178;-94
2022/06/23 12:23:29;;;;;;;2.20;1.15;;;31.30;67.00;;;;;;5015675;28;20186;-94
2022/06/23 12:26:09;;;;;;;3.92;1.10;;;31.40;66.30;;;;;;5015950;28;20255;-93
2022/06/23 12:28:50;;;;;;;1.85;1.30;;;31.40;67.70;;;;;;5015812;28;20206;-93
2022/06/23 12:31:21;;;;;;;2.78;1.40;;;31.30;65.60;;;;;;5017446;28;20245;-95
2022/06/23 12:33:55;;;;;;;2.28;1.40;;;31.30;64.30;;;;;;5015845;28;20246;-94
2022/06/23 12:36:34;;;;;;;1.45;1.20;;;31.30;64.90;;;;;;5015477;28;20756;-94
2022/06/23 12:39:15;;;;;;;2.97;1.40;;;31.40;64.90;;;;;;5017506;28;20178;-94
2022/06/23 12:41:54;;;;;;;2.58;1.25;;;31.50;66.60;;;;;;5017913;28;20194;-94
2022/06/23 12:44:37;;;;;;;3.05;1.50;;;31.60;64.20;;;;;;5016746;28;20175;-94
2022/06/23 12:47:03;;;;;;;2.60;1.42;;;31.70;65.60;;;;;;5013389;28;20252;-94
2022/06/23 12:49:58;;;;;;;2.22;1.20;;;31.70;64.70;;;;;;5018567;28;20174;-95
2022/06/23 12:52:42;;;;;;;2.53;1.30;;;31.70;63.80;;;;;;5016599;28;20175;-94
2022/06/23 12:55:46;;;;;;;1.52;1.13;;;31.80;65.10;;;;;;5016405;28;20195;-94
2022/06/23 12:58:28;;;;;;;2.08;1.30;;;31.90;63.00;;;;;;4975518;28;20673;-93
2022/06/23 13:00:54;;;;;;;2.75;1.30;;;31.90;64.20;;;;;;4997644;28;20171;-92
2022/06/23 13:03:50;;;;;;;2.13;1.35;;;32.00;65.50;;;;;;4996304;28;20187;-94
2022/06/23 13:06:30;;;;;;;1.45;1.20;;;32.00;63.00;;;;;;5004063;28;20640;-93
2022/06/23 13:09:09;;;;;;;1.98;1.20;;;32.00;62.20;;;;;;4996201;28;20219;-92
2022/06/23 13:11:58;;;;;;;4.03;1.20;;;32.10;64.00;;;;;;4997604;28;20698;-94
2022/06/23 13:14:47;;;;;;;2.30;1.27;;;32.10;59.70;;;;;;4997021;28;20571;-93
2022/06/23 13:17:25;;;;;;;2.72;1.30;;;31.90;62.10;;;;;;5006170;28;20608;-95
2022/06/23 13:19:59;;;;;;;2.78;1.00;;;32.00;62.10;;;;;;5015897;28;20694;-94
2022/06/23 13:22:25;;;;;;;2.38;1.30;;;31.90;61.70;;;;;;5015088;28;20171;-94
2022/06/23 13:24:54;;;;;;;2.53;1.33;;;32.00;63.40;;;;;;5014975;28;20181;-94
2022/06/23 13:27:24;;;;;;;3.10;1.40;;;32.10;63.40;;;;;;5014973;28;20217;-94
2022/06/23 13:30:12;;;;;;;2.25;1.30;;;32.20;63.10;;;;;;5014446;28;20717;-95
2022/06/23 13:32:59;;;;;;;3.15;1.42;;;32.20;61.30;;;;;;5014520;28;20540;-96
2022/06/23 13:35:39;;;;;;;1.77;1.02;;;32.30;64.70;;;;;;5015480;28;20283;-93
2022/06/23 13:38:14;;;;;;;5.82;1.30;;;32.40;63.30;;;;;;5014672;28;20245;-93
2022/06/23 13:41:01;;;;;;;1.67;1.23;;;32.50;60.50;;;;;;5014536;28;20178;-94
2022/06/23 13:43:57;;;;;;;2.15;1.20;;;32.40;60.40;;;;;;5014348;28;20589;-93
2022/06/23 13:46:41;;;;;;;2.28;1.17;;;32.30;60.50;;;;;;5014296;28;20198;-93
2022/06/23 13:49:19;;;;;;;3.67;1.35;;;32.30;63.20;;;;;;5014379;28;20261;-94
2022/06/23 13:52:15;;;;;;;4.18;1.30;;;32.30;60.70;;;;;;5014236;28;20224;-93
2022/06/23 13:54:59;;;;;;;1.45;0.90;;;32.40;61.20;;;;;;5007670;28;20210;-95
2022/06/23 13:57:40;;;;;;;1.27;1.17;;;32.50;60.30;;;;;;5014058;28;20162;-93
2022/06/23 14:00:30;;;;;;;1.63;0.95;;;32.50;61.50;;;;;;5013964;28;20182;-93
2022/06/23 14:03:07;;;;;;;2.00;1.10;;;32.80;59.60;;;;;;5012956;28;20186;-94
2022/06/23 14:05:48;;;;;;;2.20;1.00;;;32.60;59.90;;;;;;5013858;28;20214;-93
2022/06/23 14:08:27;;;;;;;2.60;1.20;;;32.60;61.10;;;;;;5030413;28;20166;-93
2022/06/23 14:11:21;;;;;;;3.42;1.30;;;32.50;60.30;;;;;;5013518;28;20241;-93